Time;durP1;ratioP1;P1;durP2;ratioP2;P2;SDS_P1;SDS_P2;PMS_P1;PMS_P2;Temp;Humidity;BMP_temperature;BMP_pressure;BME280_temperature;BME280_humidity;BME280_pressure;Samples;Min_cycle;Max_cycle;Signal;HPM_P1;HPM_P2
2022/10/25 00:00:48;;;;;;;4.17;2.40;;;11.00;99.90;;;;;;4878191;29;20654;-87
2022/10/25 00:03:14;;;;;;;4.73;2.07;;;10.90;99.90;;;;;;4862951;29;20207;-87
2022/10/25 00:05:40;;;;;;;2.70;2.50;;;10.70;99.90;;;;;;4877887;29;20205;-87
2022/10/25 00:08:07;;;;;;;4.20;2.50;;;10.60;99.90;;;;;;4875033;29;20210;-87
2022/10/25 00:10:34;;;;;;;3.60;2.17;;;10.60;99.90;;;;;;4862998;29;20224;-87
2022/10/25 00:13:00;;;;;;;4.50;2.33;;;10.50;99.90;;;;;;4862413;29;20241;-87
2022/10/25 00:15:26;;;;;;;7.37;2.23;;;10.50;99.90;;;;;;4862763;29;20184;-87
2022/10/25 00:17:52;;;;;;;2.63;2.10;;;10.40;99.90;;;;;;4862179;29;20184;-87
2022/10/25 00:20:19;;;;;;;4.30;2.40;;;10.30;99.90;;;;;;4849470;29;20196;-87
2022/10/25 00:22:45;;;;;;;2.77;2.10;;;10.30;99.90;;;;;;4859126;29;20221;-87
2022/10/25 00:25:11;;;;;;;4.13;2.23;;;10.30;99.90;;;;;;4859221;29;20287;-87
2022/10/25 00:27:37;;;;;;;2.77;1.83;;;10.30;99.90;;;;;;4859301;29;20177;-87
2022/10/25 00:30:05;;;;;;;1.80;1.40;;;10.30;99.90;;;;;;4859425;29;20192;-87
2022/10/25 00:32:32;;;;;;;1.53;1.30;;;10.30;99.90;;;;;;4877189;29;20200;-87
2022/10/25 00:34:58;;;;;;;2.73;1.53;;;10.30;99.90;;;;;;4877502;29;20199;-87
2022/10/25 00:37:24;;;;;;;4.43;1.53;;;10.40;99.90;;;;;;4862052;29;20196;-87
2022/10/25 00:39:50;;;;;;;1.50;1.23;;;10.40;99.90;;;;;;4859253;29;20196;-87
2022/10/25 00:42:23;;;;;;;1.67;1.50;;;10.60;99.90;;;;;;4858959;29;20246;-87
2022/10/25 00:44:55;;;;;;;1.93;1.60;;;10.60;99.90;;;;;;4859275;29;20230;-87
2022/10/25 00:47:21;;;;;;;6.50;1.87;;;10.70;99.90;;;;;;4860907;29;20268;-87
2022/10/25 00:49:59;;;;;;;2.73;1.90;;;10.70;99.90;;;;;;4863033;29;20296;-87
2022/10/25 00:52:28;;;;;;;3.63;2.63;;;10.60;99.90;;;;;;4878047;29;20210;-87
2022/10/25 00:54:54;;;;;;;2.67;2.23;;;10.50;99.90;;;;;;4866114;29;20203;-87
2022/10/25 00:57:36;;;;;;;3.37;2.50;;;10.50;99.90;;;;;;4860828;29;20193;-87
2022/10/25 01:00:04;;;;;;;2.90;2.53;;;10.50;99.90;;;;;;4864218;29;20196;-87
2022/10/25 01:02:31;;;;;;;3.40;2.57;;;10.50;99.90;;;;;;4863382;29;20304;-87
2022/10/25 01:04:57;;;;;;;3.00;1.93;;;10.50;99.90;;;;;;4862621;29;20216;-87
2022/10/25 01:07:23;;;;;;;3.23;2.50;;;10.40;99.90;;;;;;4877979;29;20180;-87
2022/10/25 01:09:50;;;;;;;5.10;2.20;;;10.40;99.90;;;;;;4862497;29;20211;-87
2022/10/25 01:12:16;;;;;;;3.33;2.23;;;10.40;99.90;;;;;;4862710;29;20201;-87
2022/10/25 01:14:46;;;;;;;3.47;2.10;;;10.50;99.90;;;;;;4862362;29;20250;-87
2022/10/25 01:17:32;;;;;;;3.37;2.20;;;10.50;99.90;;;;;;4862133;29;20220;-87
2022/10/25 01:20:13;;;;;;;2.00;1.80;;;10.40;99.90;;;;;;4862485;29;20185;-87
2022/10/25 01:22:50;;;;;;;3.07;2.10;;;10.40;99.90;;;;;;4862125;29;20211;-87
2022/10/25 01:25:34;;;;;;;5.13;2.10;;;10.40;99.90;;;;;;4862249;29;20311;-87
2022/10/25 01:28:21;;;;;;;2.37;2.17;;;10.40;99.90;;;;;;4862728;29;20188;-87
2022/10/25 01:30:59;;;;;;;2.40;2.03;;;10.40;99.90;;;;;;4865554;29;20247;-87
2022/10/25 01:33:34;;;;;;;1.73;1.63;;;10.40;99.90;;;;;;4865510;29;20204;-87
2022/10/25 01:36:09;;;;;;;3.10;1.70;;;10.40;99.90;;;;;;4880524;29;20193;-87
2022/10/25 01:38:40;;;;;;;4.80;2.03;;;10.30;99.90;;;;;;4865054;29;20296;-87
2022/10/25 01:41:30;;;;;;;3.07;2.20;;;10.30;99.90;;;;;;4865411;29;20190;-87
2022/10/25 01:44:05;;;;;;;3.83;2.03;;;10.30;99.90;;;;;;4854984;29;20243;-87
2022/10/25 01:46:54;;;;;;;5.37;2.10;;;10.30;99.90;;;;;;4864914;29;20209;-87
2022/10/25 01:49:44;;;;;;;2.40;1.90;;;10.30;99.90;;;;;;4864989;29;20205;-87
2022/10/25 01:52:10;;;;;;;2.43;2.00;;;10.20;99.90;;;;;;4880535;29;20169;-87
2022/10/25 01:54:35;;;;;;;2.77;2.17;;;10.30;99.90;;;;;;4849832;29;20249;-87
2022/10/25 01:57:07;;;;;;;3.23;1.90;;;10.30;99.90;;;;;;4862015;29;20218;-87
2022/10/25 01:59:37;;;;;;;4.07;2.20;;;10.30;99.90;;;;;;4860591;29;20259;-87
2022/10/25 02:02:17;;;;;;;2.33;1.90;;;10.30;99.90;;;;;;4875327;29;20281;-87
2022/10/25 02:05:01;;;;;;;2.97;2.07;;;10.30;99.90;;;;;;4864663;29;20213;-87
2022/10/25 02:07:30;;;;;;;2.20;2.00;;;10.40;99.90;;;;;;4864472;29;20177;-87
2022/10/25 02:10:08;;;;;;;2.23;2.03;;;10.20;99.90;;;;;;4880042;29;20196;-87
2022/10/25 02:12:51;;;;;;;3.03;2.10;;;10.20;99.90;;;;;;4864543;29;20210;-87
2022/10/25 02:15:38;;;;;;;2.20;2.00;;;10.20;99.90;;;;;;4864672;29;20205;-87
2022/10/25 02:18:10;;;;;;;4.30;1.90;;;10.20;99.90;;;;;;4843019;29;20177;-87
2022/10/25 02:20:37;;;;;;;3.20;2.00;;;10.20;99.90;;;;;;4842993;29;20191;-86
2022/10/25 02:23:04;;;;;;;3.47;1.80;;;10.20;99.90;;;;;;4854646;29;20265;-87
2022/10/25 02:25:36;;;;;;;3.43;2.37;;;10.20;99.90;;;;;;4861252;29;20268;-87
2022/10/25 02:28:09;;;;;;;4.37;2.60;;;10.20;99.90;;;;;;4860775;29;20193;-87
2022/10/25 02:30:37;;;;;;;4.13;2.30;;;10.20;99.90;;;;;;4860924;29;20264;-87
2022/10/25 02:33:03;;;;;;;3.57;2.20;;;10.30;99.90;;;;;;4861097;29;20201;-87
2022/10/25 02:35:29;;;;;;;3.13;2.50;;;10.20;99.90;;;;;;4861046;29;20288;-87
2022/10/25 02:37:54;;;;;;;3.50;2.57;;;10.20;99.90;;;;;;4860708;29;20276;-87
2022/10/25 02:40:21;;;;;;;2.97;2.00;;;10.20;99.90;;;;;;4868318;29;20187;-87
2022/10/25 02:42:58;;;;;;;4.10;2.10;;;10.30;99.90;;;;;;4861353;29;20216;-87
2022/10/25 02:45:24;;;;;;;6.83;2.63;;;10.20;99.90;;;;;;4860751;29;20213;-87
2022/10/25 02:47:49;;;;;;;3.17;2.00;;;10.20;99.90;;;;;;4860551;29;20204;-87
2022/10/25 02:50:15;;;;;;;3.90;2.27;;;10.10;99.90;;;;;;4860926;29;20181;-87
2022/10/25 02:52:41;;;;;;;2.80;2.03;;;10.20;99.90;;;;;;4861088;29;20209;-87
2022/10/25 02:55:07;;;;;;;2.47;2.00;;;10.10;99.90;;;;;;4860714;29;20189;-88
2022/10/25 02:57:35;;;;;;;2.47;2.20;;;10.10;99.90;;;;;;4868924;29;20262;-87
2022/10/25 03:00:03;;;;;;;3.20;1.83;;;10.10;99.90;;;;;;4865447;29;20204;-87
2022/10/25 03:02:29;;;;;;;4.93;2.20;;;10.10;99.90;;;;;;4860340;29;20247;-87
2022/10/25 03:04:55;;;;;;;5.77;2.00;;;10.10;99.90;;;;;;4860499;29;20241;-87
2022/10/25 03:07:35;;;;;;;4.03;2.23;;;10.10;99.90;;;;;;4876139;29;20225;-87
2022/10/25 03:10:00;;;;;;;2.90;2.00;;;10.10;99.90;;;;;;4863194;29;20208;-87
2022/10/25 03:12:26;;;;;;;2.47;1.80;;;10.10;99.90;;;;;;4862656;29;20234;-87
2022/10/25 03:14:52;;;;;;;2.63;1.83;;;10.00;99.90;;;;;;4852042;29;20648;-87
2022/10/25 03:17:18;;;;;;;4.80;2.10;;;10.00;99.90;;;;;;4873582;29;20192;-87
2022/10/25 03:19:44;;;;;;;2.17;1.90;;;10.00;99.90;;;;;;4861500;29;20186;-87
2022/10/25 03:22:09;;;;;;;2.57;2.03;;;10.00;99.90;;;;;;4860125;29;20185;-87
2022/10/25 03:24:35;;;;;;;3.73;1.90;;;10.00;99.90;;;;;;4860120;29;20216;-87
2022/10/25 03:27:01;;;;;;;6.27;2.20;;;10.00;99.90;;;;;;4859888;29;20271;-87
2022/10/25 03:29:27;;;;;;;5.03;2.40;;;10.00;99.90;;;;;;4869049;29;20221;-87
2022/10/25 03:31:53;;;;;;;4.57;2.27;;;10.00;99.90;;;;;;4863334;29;20264;-87
2022/10/25 03:34:19;;;;;;;3.47;1.90;;;10.00;99.90;;;;;;4863089;29;20196;-87
2022/10/25 03:36:44;;;;;;;3.40;2.37;;;10.00;99.90;;;;;;4862993;29;20183;-87
2022/10/25 03:39:10;;;;;;;4.97;2.23;;;10.00;99.90;;;;;;4852315;29;20186;-87
2022/10/25 03:41:36;;;;;;;2.43;2.10;;;9.90;99.90;;;;;;4859698;29;20600;-87
2022/10/25 03:44:02;;;;;;;3.43;2.00;;;9.90;99.90;;;;;;4860029;29;20209;-87
2022/10/25 03:46:28;;;;;;;3.33;2.00;;;9.90;99.90;;;;;;4877928;29;20306;-87
2022/10/25 03:48:56;;;;;;;4.23;2.30;;;9.80;99.90;;;;;;4841038;29;20253;-87
2022/10/25 03:51:24;;;;;;;5.03;2.37;;;9.80;99.90;;;;;;4840870;29;20195;-87
2022/10/25 03:54:04;;;;;;;3.60;2.10;;;9.80;99.90;;;;;;4840984;29;20205;-87
2022/10/25 03:56:30;;;;;;;3.87;2.10;;;9.80;99.90;;;;;;4840984;29;20182;-87
2022/10/25 03:58:56;;;;;;;4.73;2.10;;;9.80;99.90;;;;;;4854661;29;20184;-86
2022/10/25 04:01:29;;;;;;;8.20;2.30;;;9.80;99.90;;;;;;4859325;29;20200;-87
2022/10/25 04:04:00;;;;;;;2.47;2.00;;;9.80;99.90;;;;;;4859430;29;20215;-87
2022/10/25 04:06:26;;;;;;;2.77;1.90;;;9.80;99.90;;;;;;4874727;29;20208;-87
2022/10/25 04:09:11;;;;;;;2.73;1.90;;;9.80;99.90;;;;;;4858904;29;20191;-86
2022/10/25 04:11:37;;;;;;;2.77;1.93;;;9.80;99.90;;;;;;4878575;29;20248;-87
2022/10/25 04:14:04;;;;;;;2.93;1.70;;;9.80;99.90;;;;;;4876229;29;20298;-86
2022/10/25 04:16:30;;;;;;;2.93;2.13;;;9.80;99.90;;;;;;4859411;29;20181;-87
2022/10/25 04:18:57;;;;;;;5.90;2.70;;;9.80;99.90;;;;;;4859692;29;20192;-87
2022/10/25 04:21:24;;;;;;;3.87;2.20;;;9.70;99.90;;;;;;4858605;29;20593;-87
2022/10/25 04:23:50;;;;;;;4.97;2.90;;;9.70;99.90;;;;;;4858497;29;20341;-87
2022/10/25 04:26:17;;;;;;;3.23;2.57;;;9.60;99.90;;;;;;4858772;29;20257;-87
2022/10/25 04:28:51;;;;;;;4.33;2.20;;;9.60;99.90;;;;;;4859362;29;20552;-87
2022/10/25 04:31:18;;;;;;;4.07;2.47;;;9.60;99.90;;;;;;4859292;29;20330;-87
2022/10/25 04:33:47;;;;;;;5.90;3.27;;;9.60;99.90;;;;;;4859490;29;20314;-87
2022/10/25 04:36:13;;;;;;;3.23;2.70;;;9.60;99.90;;;;;;4859146;29;20197;-86
2022/10/25 04:38:39;;;;;;;3.53;2.40;;;9.60;99.90;;;;;;4859177;29;20184;-87
2022/10/25 04:41:05;;;;;;;4.13;2.27;;;9.60;99.90;;;;;;4871748;29;20188;-87
2022/10/25 04:43:31;;;;;;;3.00;2.43;;;9.50;99.90;;;;;;4861904;29;20208;-87
2022/10/25 04:46:00;;;;;;;2.43;2.20;;;9.40;99.90;;;;;;4862256;29;20303;-87
2022/10/25 04:48:37;;;;;;;4.53;2.23;;;9.30;99.90;;;;;;4861870;29;20192;-87
2022/10/25 04:51:03;;;;;;;4.60;2.63;;;9.10;99.90;;;;;;4849291;29;20180;-87
2022/10/25 04:53:29;;;;;;;4.00;2.50;;;9.00;99.90;;;;;;4859184;29;20242;-87
2022/10/25 04:56:01;;;;;;;2.77;2.57;;;8.90;99.90;;;;;;4859051;29;20221;-87
2022/10/25 04:58:27;;;;;;;3.80;2.80;;;8.80;99.90;;;;;;4858900;29;20217;-87
2022/10/25 05:01:19;;;;;;;4.60;3.00;;;8.80;99.90;;;;;;4857855;29;20295;-87
2022/10/25 05:03:45;;;;;;;3.50;2.87;;;8.80;99.90;;;;;;4859052;29;20224;-87
2022/10/25 05:06:15;;;;;;;3.23;2.83;;;8.80;99.90;;;;;;4858854;29;20243;-87
2022/10/25 05:08:42;;;;;;;4.33;3.10;;;8.70;99.90;;;;;;4843277;29;20617;-87
2022/10/25 05:11:10;;;;;;;3.20;2.60;;;8.80;99.90;;;;;;4858830;29;20173;-87
2022/10/25 05:13:38;;;;;;;2.63;2.40;;;8.80;99.90;;;;;;4843741;29;20238;-87
2022/10/25 05:16:05;;;;;;;3.53;2.13;;;8.80;99.90;;;;;;4858846;29;20189;-87
2022/10/25 05:18:32;;;;;;;2.90;2.33;;;8.80;99.90;;;;;;4858583;29;20185;-87
2022/10/25 05:21:00;;;;;;;3.23;2.37;;;8.70;99.90;;;;;;4858748;29;20235;-87
2022/10/25 05:23:27;;;;;;;3.93;2.47;;;8.70;99.90;;;;;;4858745;29;20230;-87
2022/10/25 05:26:15;;;;;;;5.63;2.90;;;8.70;99.90;;;;;;4859063;29;20216;-86
2022/10/25 05:28:43;;;;;;;6.63;3.13;;;8.70;99.90;;;;;;4858601;29;20189;-87
2022/10/25 05:31:14;;;;;;;3.23;2.57;;;8.70;99.90;;;;;;4858845;29;20253;-86
2022/10/25 05:33:43;;;;;;;3.80;2.93;;;8.80;99.90;;;;;;4861713;29;20208;-86
2022/10/25 05:36:10;;;;;;;3.53;2.47;;;8.80;99.90;;;;;;4862030;29;20196;-87
2022/10/25 05:38:36;;;;;;;2.90;2.60;;;8.80;99.90;;;;;;4866063;29;20251;-87
2022/10/25 05:41:02;;;;;;;6.63;3.00;;;8.80;99.90;;;;;;4852596;29;20264;-87
2022/10/25 05:43:28;;;;;;;4.30;3.17;;;8.80;99.90;;;;;;4871721;29;20235;-87
2022/10/25 05:46:05;;;;;;;4.90;3.23;;;8.80;99.90;;;;;;4880613;29;20224;-87
2022/10/25 05:48:32;;;;;;;3.37;2.30;;;8.80;99.90;;;;;;4864899;29;20184;-87
2022/10/25 05:51:22;;;;;;;4.13;3.40;;;8.90;99.90;;;;;;4874619;29;20187;-87
2022/10/25 05:53:54;;;;;;;11.63;4.10;;;8.90;99.90;;;;;;4862544;29;20208;-87
2022/10/25 05:56:22;;;;;;;4.97;4.03;;;8.90;99.90;;;;;;4862319;29;20276;-87
2022/10/25 05:58:48;;;;;;;4.50;3.40;;;9.00;99.90;;;;;;4862265;29;20192;-87
2022/10/25 06:01:17;;;;;;;5.37;4.00;;;9.00;99.90;;;;;;4861762;29;20185;-87
2022/10/25 06:03:43;;;;;;;3.87;3.30;;;9.10;99.90;;;;;;4861510;29;20240;-87
2022/10/25 06:06:25;;;;;;;4.93;3.60;;;9.10;99.90;;;;;;4861214;29;20208;-87
2022/10/25 06:08:59;;;;;;;4.97;3.47;;;9.10;99.90;;;;;;4861541;29;20214;-87
2022/10/25 06:11:26;;;;;;;5.53;3.63;;;9.20;99.90;;;;;;4846365;29;20726;-87
2022/10/25 06:13:52;;;;;;;7.50;3.40;;;9.20;99.90;;;;;;4861622;29;20216;-87
2022/10/25 06:16:19;;;;;;;6.93;3.40;;;9.20;99.90;;;;;;4861903;29;20221;-87
2022/10/25 06:18:45;;;;;;;5.17;3.57;;;9.20;99.90;;;;;;4861104;29;20647;-87
2022/10/25 06:21:14;;;;;;;4.73;3.57;;;9.20;99.90;;;;;;4861355;29;20267;-87
2022/10/25 06:23:41;;;;;;;5.17;3.00;;;9.20;99.90;;;;;;4861319;29;20209;-86
2022/10/25 06:26:10;;;;;;;4.33;2.87;;;9.20;99.90;;;;;;4861214;29;20272;-87
2022/10/25 06:28:36;;;;;;;9.10;3.10;;;9.20;99.90;;;;;;4861241;29;20206;-87
2022/10/25 06:31:03;;;;;;;4.03;3.57;;;9.30;99.90;;;;;;4861178;29;20249;-87
2022/10/25 06:33:30;;;;;;;4.67;3.33;;;9.30;99.90;;;;;;4860984;29;20257;-87
2022/10/25 06:39:04;;;;;;;3.97;2.97;;;9.30;99.90;;;;;;4861373;29;20228;-87
2022/10/25 06:41:30;;;;;;;4.43;2.70;;;9.30;99.90;;;;;;4861255;29;20212;-87
2022/10/25 06:43:58;;;;;;;5.27;2.87;;;9.40;99.90;;;;;;4860459;29;20204;-87
2022/10/25 06:46:32;;;;;;;2.73;2.47;;;9.50;99.90;;;;;;4861007;29;20276;-87
2022/10/25 06:48:59;;;;;;;7.43;2.80;;;9.50;99.90;;;;;;4861030;29;20196;-87
2022/10/25 06:51:27;;;;;;;3.17;2.60;;;9.60;99.90;;;;;;4860863;29;20185;-86
2022/10/25 06:53:58;;;;;;;2.03;1.87;;;9.70;99.90;;;;;;4860484;29;20209;-87
2022/10/25 06:56:25;;;;;;;3.63;2.03;;;9.80;99.90;;;;;;4859151;29;20256;-87
2022/10/25 06:58:51;;;;;;;4.73;2.80;;;9.90;99.90;;;;;;4860513;29;20194;-87
2022/10/25 07:01:20;;;;;;;3.17;2.40;;;10.00;99.90;;;;;;4860765;29;20215;-87
2022/10/25 07:03:49;;;;;;;3.40;2.10;;;10.10;99.90;;;;;;4860442;29;20208;-87
2022/10/25 07:06:24;;;;;;;4.67;2.23;;;10.20;99.90;;;;;;4860423;29;20224;-87
2022/10/25 07:08:55;;;;;;;2.90;2.27;;;10.30;99.90;;;;;;4860407;29;20224;-87
2022/10/25 07:11:23;;;;;;;4.13;2.40;;;10.40;99.90;;;;;;4860424;29;20220;-87
2022/10/25 07:13:49;;;;;;;3.57;2.03;;;10.50;99.90;;;;;;4860902;29;20279;-87
2022/10/25 07:16:17;;;;;;;4.63;2.10;;;10.50;99.90;;;;;;4860516;29;20196;-87
2022/10/25 07:18:43;;;;;;;4.93;2.23;;;10.60;99.90;;;;;;4860563;29;20185;-87
2022/10/25 07:21:14;;;;;;;6.40;2.30;;;10.60;99.90;;;;;;4860736;29;20194;-87
2022/10/25 07:23:41;;;;;;;3.67;2.23;;;10.70;99.90;;;;;;4860570;29;20209;-87
2022/10/25 07:26:08;;;;;;;3.20;2.73;;;10.70;99.90;;;;;;4860566;29;20209;-87
2022/10/25 07:28:34;;;;;;;5.77;3.67;;;10.80;99.90;;;;;;4860607;29;20181;-87
2022/10/25 07:31:00;;;;;;;4.53;3.30;;;10.80;99.90;;;;;;4860843;29;20184;-87
2022/10/25 07:33:26;;;;;;;4.73;3.23;;;10.90;99.90;;;;;;4860597;29;20205;-87
2022/10/25 07:35:51;;;;;;;7.73;3.60;;;10.90;99.90;;;;;;4860492;29;20200;-87
2022/10/25 07:38:17;;;;;;;4.07;2.70;;;10.90;99.90;;;;;;4860475;29;20245;-87
2022/10/25 07:40:43;;;;;;;3.83;2.90;;;10.90;99.90;;;;;;4860900;29;20186;-87
2022/10/25 07:43:09;;;;;;;3.87;3.10;;;11.00;99.90;;;;;;4860479;29;20204;-86
2022/10/25 07:45:37;;;;;;;3.43;3.03;;;11.10;99.90;;;;;;4860279;29;20315;-87
2022/10/25 07:48:03;;;;;;;5.63;3.30;;;11.10;99.90;;;;;;4860208;29;20222;-87
2022/10/25 07:50:29;;;;;;;4.83;3.40;;;11.10;99.90;;;;;;4860043;29;20197;-87
2022/10/25 07:52:56;;;;;;;4.80;3.17;;;11.20;99.90;;;;;;4859365;29;20772;-87
2022/10/25 07:55:23;;;;;;;5.23;3.30;;;11.30;99.90;;;;;;4860166;29;20643;-87
2022/10/25 07:57:49;;;;;;;4.53;3.40;;;11.40;99.90;;;;;;4859868;29;20189;-87
2022/10/25 08:00:15;;;;;;;6.13;2.93;;;11.50;99.90;;;;;;4860081;29;20195;-87
2022/10/25 08:02:41;;;;;;;6.80;3.00;;;11.60;99.90;;;;;;4869657;29;20211;-87
2022/10/25 08:05:08;;;;;;;5.43;3.40;;;11.70;99.90;;;;;;4879200;29;20214;-81
2022/10/25 08:07:34;;;;;;;3.57;2.70;;;11.80;99.90;;;;;;4864099;29;20207;-84
2022/10/25 08:10:04;;;;;;;4.67;2.90;;;11.90;99.90;;;;;;4863633;29;20263;-86
2022/10/25 08:12:30;;;;;;;5.40;3.20;;;12.10;99.90;;;;;;4860063;29;20198;-87
2022/10/25 08:14:56;;;;;;;3.37;2.70;;;12.20;99.90;;;;;;4878008;29;20250;-86
2022/10/25 08:17:24;;;;;;;3.13;2.27;;;12.30;99.90;;;;;;4844681;29;20267;-86
2022/10/25 08:20:01;;;;;;;4.20;2.27;;;12.50;99.90;;;;;;4859184;29;20207;-86
2022/10/25 08:22:27;;;;;;;5.70;2.33;;;12.60;99.90;;;;;;4859531;29;20208;-86
2022/10/25 08:24:53;;;;;;;4.57;2.20;;;12.70;99.90;;;;;;4859754;29;20231;-86
2022/10/25 08:27:28;;;;;;;3.13;2.17;;;12.80;99.90;;;;;;4859637;29;20238;-87
2022/10/25 08:30:09;;;;;;;4.53;2.57;;;13.00;99.90;;;;;;4859036;29;20180;-86
2022/10/25 08:32:40;;;;;;;3.57;2.20;;;13.10;99.90;;;;;;4859255;29;20287;-86
2022/10/25 08:35:14;;;;;;;2.93;2.33;;;13.10;99.90;;;;;;4859392;29;20283;-86
2022/10/25 08:37:40;;;;;;;4.70;2.27;;;13.30;99.90;;;;;;4859172;29;20191;-86
2022/10/25 08:40:13;;;;;;;3.57;2.10;;;13.30;99.90;;;;;;4859008;29;20196;-86
2022/10/25 08:42:58;;;;;;;4.80;1.90;;;13.40;99.90;;;;;;4859113;29;20223;-86
2022/10/25 08:45:34;;;;;;;3.97;1.83;;;13.60;99.90;;;;;;4859250;29;20215;-87
2022/10/25 08:48:10;;;;;;;3.97;1.77;;;13.60;99.90;;;;;;4859152;29;20187;-86
2022/10/25 08:50:41;;;;;;;2.63;1.90;;;13.70;99.90;;;;;;4859245;29;20204;-86
2022/10/25 08:53:24;;;;;;;4.93;1.87;;;13.90;99.90;;;;;;4859464;29;20201;-87
2022/10/25 08:55:51;;;;;;;7.70;1.93;;;14.00;99.90;;;;;;4859198;29;20203;-86
2022/10/25 08:58:35;;;;;;;3.40;1.80;;;14.10;99.90;;;;;;4858994;29;20188;-86
2022/10/25 09:01:10;;;;;;;3.63;1.80;;;14.20;99.90;;;;;;4859201;29;20220;-86
2022/10/25 09:03:39;;;;;;;3.57;1.93;;;14.30;99.90;;;;;;4843546;29;20307;-86
2022/10/25 09:06:27;;;;;;;5.67;2.03;;;14.40;99.90;;;;;;4861273;29;20211;-86
2022/10/25 09:09:31;;;;;;;4.87;1.40;;;14.60;99.90;;;;;;4862468;29;20187;-89
2022/10/25 09:12:50;;;;;;;4.13;1.40;;;14.70;99.90;;;;;;4865739;29;20198;-87
2022/10/25 09:15:50;;;;;;;3.37;1.23;;;14.80;99.90;;;;;;4845863;29;20674;-85
2022/10/25 09:18:18;;;;;;;3.73;1.50;;;15.00;99.90;;;;;;4847096;29;20267;-78
2022/10/25 09:20:49;;;;;;;6.07;1.60;;;15.00;99.90;;;;;;4863311;29;20204;-85
2022/10/25 09:23:30;;;;;;;3.50;1.67;;;15.20;99.90;;;;;;4872633;29;20211;-88
2022/10/25 09:26:03;;;;;;;4.50;1.70;;;15.30;99.90;;;;;;4855487;29;20749;-88
2022/10/25 09:29:00;;;;;;;3.70;1.83;;;15.40;99.90;;;;;;4862585;29;20173;-87
2022/10/25 09:31:30;;;;;;;3.83;1.47;;;15.40;99.90;;;;;;4862604;29;20268;-87
2022/10/25 09:34:00;;;;;;;3.33;1.50;;;15.50;99.90;;;;;;4862058;29;20241;-87
2022/10/25 09:36:36;;;;;;;3.13;1.40;;;15.50;99.90;;;;;;4862470;29;20189;-87
2022/10/25 09:39:10;;;;;;;3.10;1.30;;;15.60;99.90;;;;;;4881171;29;20180;-87
2022/10/25 09:41:55;;;;;;;3.97;1.67;;;15.60;99.90;;;;;;4865708;29;20205;-87
2022/10/25 09:44:53;;;;;;;3.87;1.33;;;15.70;99.90;;;;;;4862886;29;20183;-87
2022/10/25 09:47:41;;;;;;;3.85;1.60;;;15.80;99.90;;;;;;4881107;29;20179;-87
2022/10/25 09:50:26;;;;;;;4.82;1.67;;;15.90;99.90;;;;;;4877279;29;20264;-87
2022/10/25 09:53:14;;;;;;;1.90;1.25;;;16.00;99.90;;;;;;4862196;29;20216;-87
2022/10/25 09:56:00;;;;;;;4.17;1.30;;;16.00;99.90;;;;;;4862388;29;20276;-87
2022/10/25 09:58:40;;;;;;;4.80;1.48;;;16.10;99.90;;;;;;4862632;29;20199;-87
2022/10/25 10:01:27;;;;;;;1.73;1.10;;;16.10;99.90;;;;;;4862543;29;20203;-87
2022/10/25 10:04:03;;;;;;;3.75;1.50;;;16.10;99.90;;;;;;4862298;29;20208;-87
2022/10/25 10:06:37;;;;;;;3.23;1.13;;;16.20;99.90;;;;;;4862608;29;20320;-87
2022/10/25 10:09:06;;;;;;;4.38;1.10;;;16.30;99.90;;;;;;4862111;29;20209;-87
2022/10/25 10:11:34;;;;;;;5.00;1.20;;;16.30;99.90;;;;;;4861798;29;20246;-88
2022/10/25 10:14:13;;;;;;;5.43;1.30;;;16.40;99.90;;;;;;4868473;29;20203;-87
2022/10/25 10:16:50;;;;;;;3.05;1.13;;;16.40;99.90;;;;;;4859492;29;20184;-88
2022/10/25 10:19:50;;;;;;;1.80;1.02;;;16.50;99.90;;;;;;4874063;29;20184;-87
2022/10/25 10:22:17;;;;;;;1.85;1.10;;;16.50;99.90;;;;;;4879576;29;20199;-87
2022/10/25 10:24:46;;;;;;;3.15;1.20;;;16.60;99.90;;;;;;4862041;29;20658;-87
2022/10/25 10:27:34;;;;;;;3.47;1.30;;;16.60;99.90;;;;;;4861929;29;20210;-87
2022/10/25 10:30:08;;;;;;;4.13;1.35;;;16.60;99.90;;;;;;4846878;29;20180;-87
2022/10/25 10:32:37;;;;;;;3.78;1.10;;;16.70;99.90;;;;;;4862273;29;20204;-87
2022/10/25 10:35:06;;;;;;;3.05;1.23;;;16.70;99.90;;;;;;4861773;29;20205;-88
2022/10/25 10:37:33;;;;;;;1.33;0.98;;;16.80;99.90;;;;;;4867079;29;20271;-87
2022/10/25 10:39:59;;;;;;;4.65;1.27;;;16.80;99.90;;;;;;4864535;29;20196;-87
2022/10/25 10:42:33;;;;;;;2.42;1.20;;;16.90;99.90;;;;;;4864031;29;20200;-87
2022/10/25 10:45:08;;;;;;;6.05;1.75;;;16.90;99.90;;;;;;4864557;29;20207;-87
2022/10/25 10:47:47;;;;;;;2.63;1.48;;;17.00;99.90;;;;;;4864744;29;20211;-87
2022/10/25 10:50:25;;;;;;;4.00;1.15;;;17.10;99.90;;;;;;4874384;29;20200;-87
2022/10/25 10:53:02;;;;;;;3.55;1.52;;;17.10;99.90;;;;;;4874573;29;20215;-87
2022/10/25 10:55:53;;;;;;;3.15;1.42;;;17.20;99.90;;;;;;4863954;29;20198;-87
2022/10/25 10:58:37;;;;;;;2.63;1.30;;;17.30;99.90;;;;;;4864307;29;20184;-87
2022/10/25 11:01:07;;;;;;;2.75;1.23;;;17.30;99.90;;;;;;4864445;29;20262;-87
2022/10/25 11:03:40;;;;;;;3.60;1.23;;;17.40;99.90;;;;;;4863929;29;20208;-87
2022/10/25 11:06:28;;;;;;;3.53;1.17;;;17.50;99.90;;;;;;4879242;29;20215;-87
2022/10/25 11:09:15;;;;;;;4.53;1.48;;;17.60;99.90;;;;;;4863749;29;20176;-86
2022/10/25 11:11:42;;;;;;;3.90;1.30;;;17.70;99.90;;;;;;4842174;29;20181;-87
2022/10/25 11:14:14;;;;;;;4.35;1.70;;;17.80;99.90;;;;;;4857812;29;20230;-88
2022/10/25 11:17:06;;;;;;;2.80;1.50;;;17.80;99.90;;;;;;4860886;29;20192;-87
2022/10/25 11:20:08;;;;;;;2.33;1.15;;;17.90;99.90;;;;;;4860968;29;20177;-86
2022/10/25 11:22:34;;;;;;;3.25;1.20;;;18.10;99.90;;;;;;4859743;29;20238;-88
2022/10/25 11:25:31;;;;;;;4.38;1.02;;;18.20;99.90;;;;;;4876370;29;20216;-88
2022/10/25 11:28:11;;;;;;;1.83;0.93;;;18.20;99.90;;;;;;4860388;29;20208;-89
2022/10/25 11:31:05;;;;;;;3.38;1.17;;;18.20;99.90;;;;;;4844786;29;20181;-88
2022/10/25 11:34:08;;;;;;;4.13;1.42;;;18.20;99.90;;;;;;4860562;29;20209;-89
2022/10/25 11:37:03;;;;;;;3.25;1.23;;;18.30;99.90;;;;;;4847696;29;20632;-83
2022/10/25 11:39:52;;;;;;;3.95;1.10;;;18.50;99.90;;;;;;4860584;29;20200;-88
2022/10/25 11:42:40;;;;;;;2.80;1.00;;;18.60;99.90;;;;;;4860440;29;20216;-88
2022/10/25 11:45:29;;;;;;;3.85;1.33;;;18.70;99.90;;;;;;4850702;29;20227;-88
2022/10/25 11:48:37;;;;;;;5.30;1.50;;;18.90;99.90;;;;;;4853818;29;20173;-89
2022/10/25 11:51:24;;;;;;;3.05;1.00;;;19.00;99.90;;;;;;4855071;29;20188;-89
2022/10/25 11:54:19;;;;;;;3.65;1.05;;;19.00;99.90;;;;;;4849945;29;20268;-88
2022/10/25 11:56:54;;;;;;;2.83;1.10;;;19.10;99.90;;;;;;4841712;29;20185;-89
2022/10/25 12:00:02;;;;;;;3.75;1.30;;;19.10;99.90;;;;;;4850685;29;20260;-89
2022/10/25 12:03:04;;;;;;;2.40;1.00;;;19.20;99.90;;;;;;4871621;29;20251;-91
2022/10/25 12:05:52;;;;;;;4.93;1.20;;;19.30;99.90;;;;;;4844034;29;20262;-83
2022/10/25 12:08:56;;;;;;;2.13;1.10;;;19.20;99.90;;;;;;4846563;29;20241;-78
2022/10/25 12:11:40;;;;;;;2.20;1.10;;;19.30;99.90;;;;;;4870681;29;20188;-78
2022/10/25 12:14:12;;;;;;;1.75;1.10;;;19.30;99.90;;;;;;4845722;29;20211;-78
2022/10/25 12:16:40;;;;;;;2.55;1.23;;;19.30;99.90;;;;;;4845486;29;20192;-78
2022/10/25 12:19:20;;;;;;;1.55;0.80;;;19.40;99.90;;;;;;4845917;29;20185;-78
2022/10/25 12:21:54;;;;;;;2.58;1.00;;;19.50;99.90;;;;;;4861727;29;20187;-80
2022/10/25 12:24:25;;;;;;;1.63;0.90;;;19.50;99.90;;;;;;4861789;29;20186;-78
2022/10/25 12:26:53;;;;;;;1.95;0.80;;;19.60;99.90;;;;;;4861170;29;20304;-79
2022/10/25 12:29:25;;;;;;;5.25;1.00;;;19.70;99.90;;;;;;4862525;29;20203;-79
2022/10/25 12:32:02;;;;;;;1.88;0.93;;;19.80;99.90;;;;;;4845490;29;20211;-89
2022/10/25 12:34:46;;;;;;;1.95;0.80;;;19.80;99.90;;;;;;4844194;29;20279;-88
2022/10/25 12:37:37;;;;;;;1.77;0.90;;;19.90;99.90;;;;;;4859750;29;20172;-90
2022/10/25 12:40:05;;;;;;;3.42;1.20;;;20.00;99.90;;;;;;4859265;29;20197;-90
2022/10/25 12:42:42;;;;;;;1.83;1.10;;;20.00;99.90;;;;;;4858552;29;20207;-90
2022/10/25 12:45:26;;;;;;;2.08;1.30;;;20.00;99.90;;;;;;4859148;29;20287;-89
2022/10/25 12:48:16;;;;;;;1.80;0.90;;;20.00;99.90;;;;;;4859408;29;20189;-90
2022/10/25 12:51:03;;;;;;;1.50;0.95;;;20.10;99.90;;;;;;4859607;29;20192;-90
2022/10/25 12:53:53;;;;;;;2.72;1.00;;;20.20;99.90;;;;;;4859699;29;20209;-90
2022/10/25 12:56:28;;;;;;;2.67;1.00;;;20.20;99.90;;;;;;4860302;29;20185;-90
2022/10/25 12:59:12;;;;;;;2.25;0.90;;;20.30;99.90;;;;;;4859803;29;20180;-90
2022/10/25 13:01:56;;;;;;;2.88;0.90;;;20.40;99.90;;;;;;4860639;29;20177;-90
2022/10/25 13:04:54;;;;;;;1.88;1.02;;;20.30;99.90;;;;;;4859352;29;20189;-90
2022/10/25 13:07:22;;;;;;;0.98;0.70;;;20.30;99.90;;;;;;4859387;29;20268;-90
2022/10/25 13:09:48;;;;;;;1.38;0.82;;;20.30;99.90;;;;;;4859546;29;20196;-90
2022/10/25 13:12:14;;;;;;;2.53;1.00;;;20.30;99.90;;;;;;4859215;29;20216;-91
2022/10/25 13:14:50;;;;;;;1.40;0.90;;;20.40;99.90;;;;;;4859446;29;20196;-90
2022/10/25 13:17:19;;;;;;;3.15;0.90;;;20.50;99.90;;;;;;4859520;29;20192;-86
2022/10/25 13:19:46;;;;;;;3.97;1.20;;;20.70;99.90;;;;;;4844167;29;20237;-88
2022/10/25 13:25:47;;;;;;;0.88;0.70;;;20.70;99.90;;;;;;4893524;29;20297;-88
2022/10/25 13:28:12;;;;;;;0.85;0.60;;;20.70;99.90;;;;;;4841221;29;20184;-88